sensor_id;sensor_type;location;lat;lon;timestamp;P1;durP1;ratioP1;P2;durP2;ratioP2
33268;SDS011;19640;50.944;5.260;2023-08-17T00:00:28;1.95;;;1.65;;
33268;SDS011;19640;50.944;5.260;2023-08-17T00:02:53;3.55;;;1.65;;
33268;SDS011;19640;50.944;5.260;2023-08-17T00:05:19;2.88;;;1.88;;
33268;SDS011;19640;50.944;5.260;2023-08-17T00:07:47;2.95;;;1.73;;
33268;SDS011;19640;50.944;5.260;2023-08-17T00:10:12;5.30;;;2.40;;
33268;SDS011;19640;50.944;5.260;2023-08-17T00:12:38;2.90;;;1.90;;
33268;SDS011;19640;50.944;5.260;2023-08-17T00:15:04;2.30;;;1.63;;
33268;SDS011;19640;50.944;5.260;2023-08-17T00:17:30;2.45;;;1.65;;
33268;SDS011;19640;50.944;5.260;2023-08-17T00:19:56;2.30;;;2.10;;
33268;SDS011;19640;50.944;5.260;2023-08-17T00:22:22;3.10;;;2.22;;
33268;SDS011;19640;50.944;5.260;2023-08-17T00:24:47;10.02;;;2.13;;
33268;SDS011;19640;50.944;5.260;2023-08-17T00:27:13;3.58;;;1.95;;
33268;SDS011;19640;50.944;5.260;2023-08-17T00:29:44;3.50;;;1.77;;
33268;SDS011;19640;50.944;5.260;2023-08-17T00:32:10;3.65;;;2.00;;
33268;SDS011;19640;50.944;5.260;2023-08-17T00:34:36;2.45;;;1.88;;
33268;SDS011;19640;50.944;5.260;2023-08-17T00:37:01;2.95;;;2.03;;
33268;SDS011;19640;50.944;5.260;2023-08-17T00:39:27;6.47;;;2.28;;
33268;SDS011;19640;50.944;5.260;2023-08-17T00:41:53;4.22;;;2.08;;
33268;SDS011;19640;50.944;5.260;2023-08-17T00:44:19;4.05;;;1.95;;
33268;SDS011;19640;50.944;5.260;2023-08-17T00:46:44;4.50;;;1.77;;
33268;SDS011;19640;50.944;5.260;2023-08-17T00:49:10;5.00;;;2.53;;
33268;SDS011;19640;50.944;5.260;2023-08-17T00:51:36;2.53;;;1.70;;
33268;SDS011;19640;50.944;5.260;2023-08-17T00:54:03;6.90;;;2.00;;
33268;SDS011;19640;50.944;5.260;2023-08-17T00:56:29;2.72;;;1.70;;
33268;SDS011;19640;50.944;5.260;2023-08-17T00:58:55;3.40;;;1.80;;
33268;SDS011;19640;50.944;5.260;2023-08-17T01:01:21;3.78;;;1.80;;
33268;SDS011;19640;50.944;5.260;2023-08-17T01:03:48;1.60;;;1.50;;
33268;SDS011;19640;50.944;5.260;2023-08-17T01:06:14;3.53;;;2.00;;
33268;SDS011;19640;50.944;5.260;2023-08-17T01:08:39;3.83;;;1.70;;
33268;SDS011;19640;50.944;5.260;2023-08-17T01:16:42;8.60;;;1.85;;
33268;SDS011;19640;50.944;5.260;2023-08-17T01:19:24;3.75;;;1.70;;
33268;SDS011;19640;50.944;5.260;2023-08-17T01:21:54;2.00;;;1.80;;
33268;SDS011;19640;50.944;5.260;2023-08-17T01:24:23;3.22;;;1.80;;
33268;SDS011;19640;50.944;5.260;2023-08-17T01:26:48;1.75;;;1.48;;
33268;SDS011;19640;50.944;5.260;2023-08-17T01:29:14;2.90;;;1.48;;
33268;SDS011;19640;50.944;5.260;2023-08-17T01:31:43;4.55;;;1.58;;
33268;SDS011;19640;50.944;5.260;2023-08-17T01:34:43;3.65;;;1.45;;
33268;SDS011;19640;50.944;5.260;2023-08-17T01:37:13;2.55;;;1.70;;
33268;SDS011;19640;50.944;5.260;2023-08-17T01:39:43;3.47;;;1.70;;
33268;SDS011;19640;50.944;5.260;2023-08-17T01:42:10;2.72;;;1.60;;
33268;SDS011;19640;50.944;5.260;2023-08-17T01:44:38;3.33;;;1.60;;
33268;SDS011;19640;50.944;5.260;2023-08-17T01:47:04;2.17;;;1.55;;
33268;SDS011;19640;50.944;5.260;2023-08-17T01:49:30;3.03;;;1.73;;
33268;SDS011;19640;50.944;5.260;2023-08-17T01:51:56;2.53;;;2.00;;
33268;SDS011;19640;50.944;5.260;2023-08-17T01:54:22;6.82;;;1.73;;
33268;SDS011;19640;50.944;5.260;2023-08-17T01:56:48;3.35;;;1.85;;
33268;SDS011;19640;50.944;5.260;2023-08-17T01:59:14;4.32;;;1.77;;
33268;SDS011;19640;50.944;5.260;2023-08-17T02:01:40;1.95;;;1.75;;
33268;SDS011;19640;50.944;5.260;2023-08-17T02:04:06;1.65;;;1.55;;
33268;SDS011;19640;50.944;5.260;2023-08-17T02:06:31;3.42;;;1.70;;
33268;SDS011;19640;50.944;5.260;2023-08-17T02:08:58;3.05;;;1.60;;
33268;SDS011;19640;50.944;5.260;2023-08-17T02:11:24;4.10;;;1.70;;
33268;SDS011;19640;50.944;5.260;2023-08-17T02:13:49;2.60;;;1.67;;
33268;SDS011;19640;50.944;5.260;2023-08-17T02:16:15;2.72;;;1.60;;
33268;SDS011;19640;50.944;5.260;2023-08-17T02:18:41;4.13;;;1.85;;
33268;SDS011;19640;50.944;5.260;2023-08-17T02:21:06;2.30;;;1.60;;
33268;SDS011;19640;50.944;5.260;2023-08-17T02:23:33;3.53;;;1.63;;
33268;SDS011;19640;50.944;5.260;2023-08-17T02:25:59;4.38;;;1.77;;
33268;SDS011;19640;50.944;5.260;2023-08-17T02:28:24;2.50;;;1.45;;
33268;SDS011;19640;50.944;5.260;2023-08-17T02:30:54;4.45;;;2.00;;
33268;SDS011;19640;50.944;5.260;2023-08-17T02:33:23;3.33;;;1.85;;
33268;SDS011;19640;50.944;5.260;2023-08-17T02:35:49;2.95;;;1.85;;
33268;SDS011;19640;50.944;5.260;2023-08-17T02:38:16;3.72;;;1.70;;
33268;SDS011;19640;50.944;5.260;2023-08-17T02:40:41;4.38;;;2.25;;
33268;SDS011;19640;50.944;5.260;2023-08-17T02:43:07;4.20;;;1.65;;
33268;SDS011;19640;50.944;5.260;2023-08-17T02:45:35;4.03;;;1.90;;
33268;SDS011;19640;50.944;5.260;2023-08-17T02:48:01;5.72;;;3.13;;
33268;SDS011;19640;50.944;5.260;2023-08-17T02:50:27;3.67;;;1.92;;
33268;SDS011;19640;50.944;5.260;2023-08-17T02:52:53;2.28;;;1.80;;
33268;SDS011;19640;50.944;5.260;2023-08-17T02:55:19;5.85;;;1.80;;
33268;SDS011;19640;50.944;5.260;2023-08-17T02:57:44;2.50;;;1.90;;
33268;SDS011;19640;50.944;5.260;2023-08-17T03:00:10;4.28;;;2.60;;
33268;SDS011;19640;50.944;5.260;2023-08-17T03:02:36;3.53;;;2.05;;
33268;SDS011;19640;50.944;5.260;2023-08-17T03:05:02;4.40;;;1.95;;
33268;SDS011;19640;50.944;5.260;2023-08-17T03:07:28;6.43;;;2.20;;
33268;SDS011;19640;50.944;5.260;2023-08-17T03:09:54;4.90;;;1.98;;
33268;SDS011;19640;50.944;5.260;2023-08-17T03:12:19;5.22;;;2.05;;
33268;SDS011;19640;50.944;5.260;2023-08-17T03:14:45;2.53;;;1.65;;
33268;SDS011;19640;50.944;5.260;2023-08-17T03:17:11;2.22;;;1.85;;
33268;SDS011;19640;50.944;5.260;2023-08-17T03:19:37;5.25;;;2.25;;
33268;SDS011;19640;50.944;5.260;2023-08-17T03:22:03;6.22;;;1.95;;
33268;SDS011;19640;50.944;5.260;2023-08-17T03:24:29;2.67;;;2.17;;
33268;SDS011;19640;50.944;5.260;2023-08-17T03:26:54;4.30;;;2.10;;
33268;SDS011;19640;50.944;5.260;2023-08-17T03:29:20;2.58;;;2.20;;
33268;SDS011;19640;50.944;5.260;2023-08-17T03:31:46;2.42;;;1.73;;
33268;SDS011;19640;50.944;5.260;2023-08-17T03:34:11;3.47;;;2.00;;
33268;SDS011;19640;50.944;5.260;2023-08-17T03:36:37;3.30;;;2.22;;
33268;SDS011;19640;50.944;5.260;2023-08-17T03:39:03;2.42;;;2.22;;
33268;SDS011;19640;50.944;5.260;2023-08-17T03:41:29;3.47;;;2.10;;
33268;SDS011;19640;50.944;5.260;2023-08-17T03:43:55;2.97;;;2.42;;
33268;SDS011;19640;50.944;5.260;2023-08-17T03:46:20;4.25;;;2.28;;
33268;SDS011;19640;50.944;5.260;2023-08-17T03:48:46;3.08;;;2.17;;
33268;SDS011;19640;50.944;5.260;2023-08-17T03:51:12;2.95;;;2.17;;
33268;SDS011;19640;50.944;5.260;2023-08-17T03:53:38;10.82;;;2.30;;
33268;SDS011;19640;50.944;5.260;2023-08-17T03:56:03;3.78;;;2.30;;
33268;SDS011;19640;50.944;5.260;2023-08-17T03:58:29;3.47;;;2.75;;
33268;SDS011;19640;50.944;5.260;2023-08-17T04:00:59;4.03;;;2.60;;
33268;SDS011;19640;50.944;5.260;2023-08-17T04:03:25;2.58;;;2.20;;
33268;SDS011;19640;50.944;5.260;2023-08-17T04:05:51;2.45;;;2.28;;
33268;SDS011;19640;50.944;5.260;2023-08-17T04:08:16;3.83;;;2.85;;
33268;SDS011;19640;50.944;5.260;2023-08-17T04:10:42;3.03;;;2.20;;
33268;SDS011;19640;50.944;5.260;2023-08-17T04:13:08;5.22;;;2.40;;
33268;SDS011;19640;50.944;5.260;2023-08-17T04:15:34;3.97;;;2.50;;
33268;SDS011;19640;50.944;5.260;2023-08-17T04:17:59;3.85;;;2.80;;
33268;SDS011;19640;50.944;5.260;2023-08-17T04:20:25;3.40;;;2.53;;
33268;SDS011;19640;50.944;5.260;2023-08-17T04:22:51;3.78;;;2.55;;
33268;SDS011;19640;50.944;5.260;2023-08-17T04:25:17;3.53;;;2.28;;
33268;SDS011;19640;50.944;5.260;2023-08-17T04:27:43;3.47;;;2.50;;
33268;SDS011;19640;50.944;5.260;2023-08-17T04:30:09;3.38;;;2.67;;
33268;SDS011;19640;50.944;5.260;2023-08-17T04:32:35;3.50;;;3.08;;
33268;SDS011;19640;50.944;5.260;2023-08-17T04:35:01;6.22;;;2.85;;
33268;SDS011;19640;50.944;5.260;2023-08-17T04:37:26;5.95;;;2.83;;
33268;SDS011;19640;50.944;5.260;2023-08-17T04:39:52;5.13;;;3.33;;
33268;SDS011;19640;50.944;5.260;2023-08-17T04:42:18;5.95;;;2.90;;
33268;SDS011;19640;50.944;5.260;2023-08-17T04:44:45;4.50;;;2.90;;
33268;SDS011;19640;50.944;5.260;2023-08-17T04:47:10;4.95;;;3.15;;
33268;SDS011;19640;50.944;5.260;2023-08-17T04:49:36;6.07;;;3.60;;
33268;SDS011;19640;50.944;5.260;2023-08-17T04:52:02;5.88;;;3.65;;
33268;SDS011;19640;50.944;5.260;2023-08-17T04:54:28;4.95;;;3.78;;
33268;SDS011;19640;50.944;5.260;2023-08-17T04:56:54;7.95;;;3.53;;
33268;SDS011;19640;50.944;5.260;2023-08-17T04:59:20;8.00;;;3.42;;
33268;SDS011;19640;50.944;5.260;2023-08-17T05:01:45;8.30;;;4.22;;
33268;SDS011;19640;50.944;5.260;2023-08-17T05:04:11;6.25;;;3.63;;
33268;SDS011;19640;50.944;5.260;2023-08-17T05:06:37;3.08;;;2.88;;
33268;SDS011;19640;50.944;5.260;2023-08-17T05:09:03;4.78;;;3.13;;
33268;SDS011;19640;50.944;5.260;2023-08-17T05:11:30;4.32;;;3.28;;
33268;SDS011;19640;50.944;5.260;2023-08-17T05:13:56;3.17;;;2.75;;
33268;SDS011;19640;50.944;5.260;2023-08-17T05:16:22;5.65;;;2.95;;
33268;SDS011;19640;50.944;5.260;2023-08-17T05:18:48;3.85;;;2.67;;
33268;SDS011;19640;50.944;5.260;2023-08-17T05:21:14;3.33;;;2.70;;
33268;SDS011;19640;50.944;5.260;2023-08-17T05:23:39;5.97;;;2.88;;
33268;SDS011;19640;50.944;5.260;2023-08-17T05:26:05;3.63;;;3.00;;
33268;SDS011;19640;50.944;5.260;2023-08-17T05:28:32;9.07;;;2.58;;
33268;SDS011;19640;50.944;5.260;2023-08-17T05:31:03;4.25;;;2.92;;
33268;SDS011;19640;50.944;5.260;2023-08-17T05:33:31;4.10;;;2.33;;
33268;SDS011;19640;50.944;5.260;2023-08-17T05:35:57;2.80;;;2.60;;
33268;SDS011;19640;50.944;5.260;2023-08-17T05:38:23;5.03;;;2.83;;
33268;SDS011;19640;50.944;5.260;2023-08-17T05:40:54;4.40;;;3.17;;
33268;SDS011;19640;50.944;5.260;2023-08-17T05:43:23;4.22;;;3.17;;
33268;SDS011;19640;50.944;5.260;2023-08-17T05:45:49;9.32;;;3.45;;
33268;SDS011;19640;50.944;5.260;2023-08-17T05:48:15;6.05;;;3.50;;
33268;SDS011;19640;50.944;5.260;2023-08-17T05:50:41;9.85;;;3.92;;
33268;SDS011;19640;50.944;5.260;2023-08-17T05:53:07;6.55;;;4.38;;
33268;SDS011;19640;50.944;5.260;2023-08-17T05:55:33;7.15;;;3.92;;
33268;SDS011;19640;50.944;5.260;2023-08-17T05:58:00;5.80;;;4.25;;
33268;SDS011;19640;50.944;5.260;2023-08-17T06:00:25;4.65;;;4.18;;
33268;SDS011;19640;50.944;5.260;2023-08-17T06:02:51;5.68;;;3.65;;
33268;SDS011;19640;50.944;5.260;2023-08-17T06:05:17;5.40;;;3.83;;
33268;SDS011;19640;50.944;5.260;2023-08-17T06:07:43;7.63;;;3.90;;
33268;SDS011;19640;50.944;5.260;2023-08-17T06:10:09;8.43;;;3.58;;
33268;SDS011;19640;50.944;5.260;2023-08-17T06:12:36;4.65;;;3.75;;
33268;SDS011;19640;50.944;5.260;2023-08-17T06:15:02;5.20;;;3.38;;
33268;SDS011;19640;50.944;5.260;2023-08-17T06:17:29;7.80;;;3.38;;
33268;SDS011;19640;50.944;5.260;2023-08-17T06:19:55;6.55;;;3.60;;
33268;SDS011;19640;50.944;5.260;2023-08-17T06:22:21;6.47;;;2.80;;
33268;SDS011;19640;50.944;5.260;2023-08-17T06:24:47;5.30;;;3.50;;
33268;SDS011;19640;50.944;5.260;2023-08-17T06:27:16;5.28;;;3.70;;
33268;SDS011;19640;50.944;5.260;2023-08-17T06:29:41;4.93;;;3.78;;
33268;SDS011;19640;50.944;5.260;2023-08-17T06:32:07;4.47;;;3.15;;
33268;SDS011;19640;50.944;5.260;2023-08-17T06:34:33;9.43;;;3.85;;
33268;SDS011;19640;50.944;5.260;2023-08-17T06:36:59;5.43;;;3.90;;
33268;SDS011;19640;50.944;5.260;2023-08-17T06:39:27;5.22;;;3.60;;
33268;SDS011;19640;50.944;5.260;2023-08-17T06:41:53;8.77;;;3.53;;
33268;SDS011;19640;50.944;5.260;2023-08-17T06:44:19;7.07;;;5.10;;
33268;SDS011;19640;50.944;5.260;2023-08-17T06:46:45;5.32;;;4.28;;
33268;SDS011;19640;50.944;5.260;2023-08-17T06:49:11;7.78;;;4.55;;
33268;SDS011;19640;50.944;5.260;2023-08-17T06:51:37;10.52;;;4.57;;
33268;SDS011;19640;50.944;5.260;2023-08-17T06:54:04;7.80;;;4.72;;
33268;SDS011;19640;50.944;5.260;2023-08-17T06:56:30;7.97;;;5.47;;
33268;SDS011;19640;50.944;5.260;2023-08-17T06:58:56;9.60;;;5.55;;
33268;SDS011;19640;50.944;5.260;2023-08-17T07:01:22;10.35;;;5.82;;
33268;SDS011;19640;50.944;5.260;2023-08-17T07:03:47;10.60;;;6.03;;
33268;SDS011;19640;50.944;5.260;2023-08-17T07:06:13;9.93;;;5.55;;
33268;SDS011;19640;50.944;5.260;2023-08-17T07:08:40;8.88;;;5.55;;
33268;SDS011;19640;50.944;5.260;2023-08-17T07:11:06;6.68;;;5.15;;
33268;SDS011;19640;50.944;5.260;2023-08-17T07:13:33;9.90;;;6.18;;
33268;SDS011;19640;50.944;5.260;2023-08-17T07:15:59;8.35;;;5.65;;
33268;SDS011;19640;50.944;5.260;2023-08-17T07:18:27;7.03;;;5.82;;
33268;SDS011;19640;50.944;5.260;2023-08-17T07:20:52;8.05;;;5.60;;
33268;SDS011;19640;50.944;5.260;2023-08-17T07:23:19;8.57;;;5.60;;
33268;SDS011;19640;50.944;5.260;2023-08-17T07:25:45;12.88;;;7.20;;
33268;SDS011;19640;50.944;5.260;2023-08-17T07:28:11;8.70;;;6.65;;
33268;SDS011;19640;50.944;5.260;2023-08-17T07:30:36;11.27;;;6.93;;
33268;SDS011;19640;50.944;5.260;2023-08-17T07:33:02;8.80;;;7.03;;
33268;SDS011;19640;50.944;5.260;2023-08-17T07:35:28;9.05;;;6.57;;
33268;SDS011;19640;50.944;5.260;2023-08-17T07:37:53;8.93;;;6.75;;
33268;SDS011;19640;50.944;5.260;2023-08-17T07:40:19;10.75;;;7.13;;
33268;SDS011;19640;50.944;5.260;2023-08-17T07:42:45;11.18;;;7.55;;
33268;SDS011;19640;50.944;5.260;2023-08-17T07:45:12;13.20;;;7.25;;
33268;SDS011;19640;50.944;5.260;2023-08-17T07:47:37;13.73;;;7.10;;
33268;SDS011;19640;50.944;5.260;2023-08-17T07:50:04;13.88;;;7.90;;
33268;SDS011;19640;50.944;5.260;2023-08-17T07:52:30;14.23;;;7.65;;
33268;SDS011;19640;50.944;5.260;2023-08-17T07:54:56;11.57;;;7.80;;
33268;SDS011;19640;50.944;5.260;2023-08-17T07:57:21;11.70;;;8.18;;
33268;SDS011;19640;50.944;5.260;2023-08-17T07:59:47;12.13;;;8.20;;
33268;SDS011;19640;50.944;5.260;2023-08-17T08:02:13;11.30;;;8.40;;
33268;SDS011;19640;50.944;5.260;2023-08-17T08:04:39;13.07;;;8.90;;
33268;SDS011;19640;50.944;5.260;2023-08-17T08:07:05;12.77;;;7.82;;
33268;SDS011;19640;50.944;5.260;2023-08-17T08:09:31;13.27;;;8.65;;
33268;SDS011;19640;50.944;5.260;2023-08-17T08:11:57;15.43;;;7.78;;
33268;SDS011;19640;50.944;5.260;2023-08-17T08:14:22;10.82;;;7.38;;
33268;SDS011;19640;50.944;5.260;2023-08-17T08:16:48;10.65;;;7.00;;
33268;SDS011;19640;50.944;5.260;2023-08-17T08:19:14;15.35;;;7.53;;
33268;SDS011;19640;50.944;5.260;2023-08-17T08:21:39;10.68;;;8.20;;
33268;SDS011;19640;50.944;5.260;2023-08-17T08:24:05;17.88;;;8.20;;
33268;SDS011;19640;50.944;5.260;2023-08-17T08:26:31;13.00;;;8.10;;
33268;SDS011;19640;50.944;5.260;2023-08-17T08:28:57;15.80;;;8.18;;
33268;SDS011;19640;50.944;5.260;2023-08-17T08:31:22;13.07;;;7.88;;
33268;SDS011;19640;50.944;5.260;2023-08-17T08:33:48;13.27;;;8.40;;
33268;SDS011;19640;50.944;5.260;2023-08-17T08:36:14;11.18;;;8.98;;
33268;SDS011;19640;50.944;5.260;2023-08-17T08:38:40;12.50;;;8.80;;
33268;SDS011;19640;50.944;5.260;2023-08-17T08:41:06;14.95;;;9.75;;
33268;SDS011;19640;50.944;5.260;2023-08-17T08:43:33;11.63;;;9.88;;
33268;SDS011;19640;50.944;5.260;2023-08-17T08:45:59;15.38;;;10.45;;
33268;SDS011;19640;50.944;5.260;2023-08-17T08:48:26;16.55;;;10.30;;
33268;SDS011;19640;50.944;5.260;2023-08-17T08:50:54;15.48;;;10.52;;
33268;SDS011;19640;50.944;5.260;2023-08-17T08:53:23;12.65;;;9.43;;
33268;SDS011;19640;50.944;5.260;2023-08-17T08:55:57;17.05;;;11.32;;
33268;SDS011;19640;50.944;5.260;2023-08-17T08:58:27;17.55;;;11.05;;
33268;SDS011;19640;50.944;5.260;2023-08-17T09:00:54;16.30;;;11.75;;
33268;SDS011;19640;50.944;5.260;2023-08-17T09:03:23;14.65;;;12.30;;
33268;SDS011;19640;50.944;5.260;2023-08-17T09:05:50;18.20;;;12.43;;
33268;SDS011;19640;50.944;5.260;2023-08-17T09:08:20;15.93;;;12.15;;
33268;SDS011;19640;50.944;5.260;2023-08-17T09:10:47;14.57;;;12.27;;
33268;SDS011;19640;50.944;5.260;2023-08-17T09:13:14;15.70;;;12.02;;
33268;SDS011;19640;50.944;5.260;2023-08-17T09:15:40;14.40;;;12.43;;
33268;SDS011;19640;50.944;5.260;2023-08-17T09:18:06;14.43;;;12.88;;
33268;SDS011;19640;50.944;5.260;2023-08-17T09:20:45;13.38;;;12.07;;
33268;SDS011;19640;50.944;5.260;2023-08-17T09:25:39;13.40;;;12.10;;
33268;SDS011;19640;50.944;5.260;2023-08-17T09:28:12;14.75;;;12.07;;
33268;SDS011;19640;50.944;5.260;2023-08-17T09:30:49;13.05;;;11.85;;
33268;SDS011;19640;50.944;5.260;2023-08-17T09:33:16;12.98;;;11.85;;
33268;SDS011;19640;50.944;5.260;2023-08-17T09:35:43;16.33;;;11.00;;
33268;SDS011;19640;50.944;5.260;2023-08-17T09:38:09;11.23;;;10.13;;
33268;SDS011;19640;50.944;5.260;2023-08-17T09:40:34;14.68;;;12.48;;
33268;SDS011;19640;50.944;5.260;2023-08-17T09:43:01;15.52;;;12.18;;
33268;SDS011;19640;50.944;5.260;2023-08-17T09:45:27;15.25;;;12.77;;
33268;SDS011;19640;50.944;5.260;2023-08-17T09:47:54;12.88;;;11.65;;
33268;SDS011;19640;50.944;5.260;2023-08-17T09:50:23;15.35;;;13.75;;
33268;SDS011;19640;50.944;5.260;2023-08-17T09:52:52;14.50;;;13.07;;
33268;SDS011;19640;50.944;5.260;2023-08-17T09:55:18;16.00;;;13.48;;
33268;SDS011;19640;50.944;5.260;2023-08-17T09:57:48;14.93;;;13.43;;
33268;SDS011;19640;50.944;5.260;2023-08-17T10:00:20;17.27;;;14.13;;
33268;SDS011;19640;50.944;5.260;2023-08-17T10:02:49;19.08;;;15.00;;
33268;SDS011;19640;50.944;5.260;2023-08-17T10:05:17;16.55;;;13.95;;
33268;SDS011;19640;50.944;5.260;2023-08-17T10:07:46;16.67;;;14.90;;
33268;SDS011;19640;50.944;5.260;2023-08-17T10:12:49;17.95;;;14.95;;
33268;SDS011;19640;50.944;5.260;2023-08-17T10:15:32;20.77;;;14.40;;
33268;SDS011;19640;50.944;5.260;2023-08-17T10:20:58;19.58;;;14.85;;
33268;SDS011;19640;50.944;5.260;2023-08-17T10:23:27;16.85;;;14.43;;
33268;SDS011;19640;50.944;5.260;2023-08-17T10:25:53;17.98;;;14.57;;
33268;SDS011;19640;50.944;5.260;2023-08-17T10:28:19;19.02;;;15.75;;
33268;SDS011;19640;50.944;5.260;2023-08-17T10:30:47;18.15;;;14.25;;
33268;SDS011;19640;50.944;5.260;2023-08-17T10:33:13;19.58;;;15.32;;
33268;SDS011;19640;50.944;5.260;2023-08-17T10:35:40;17.75;;;13.98;;
33268;SDS011;19640;50.944;5.260;2023-08-17T10:38:07;19.85;;;14.75;;
33268;SDS011;19640;50.944;5.260;2023-08-17T10:40:37;16.08;;;13.70;;
33268;SDS011;19640;50.944;5.260;2023-08-17T10:45:31;16.23;;;12.02;;
33268;SDS011;19640;50.944;5.260;2023-08-17T10:48:45;16.45;;;10.00;;
33268;SDS011;19640;50.944;5.260;2023-08-17T10:50:58;12.63;;;9.93;;
33268;SDS011;19640;50.944;5.260;2023-08-17T10:53:25;11.90;;;10.63;;
33268;SDS011;19640;50.944;5.260;2023-08-17T10:55:54;11.82;;;9.70;;
33268;SDS011;19640;50.944;5.260;2023-08-17T10:58:23;13.18;;;10.30;;
33268;SDS011;19640;50.944;5.260;2023-08-17T11:00:49;12.68;;;9.73;;
33268;SDS011;19640;50.944;5.260;2023-08-17T11:03:20;12.10;;;10.73;;
33268;SDS011;19640;50.944;5.260;2023-08-17T11:05:51;14.05;;;11.25;;
33268;SDS011;19640;50.944;5.260;2023-08-17T11:08:38;14.77;;;11.27;;
33268;SDS011;19640;50.944;5.260;2023-08-17T11:11:06;13.48;;;11.35;;
33268;SDS011;19640;50.944;5.260;2023-08-17T11:13:35;14.30;;;11.48;;
33268;SDS011;19640;50.944;5.260;2023-08-17T11:16:03;12.98;;;11.43;;
33268;SDS011;19640;50.944;5.260;2023-08-17T11:18:30;14.15;;;12.05;;
33268;SDS011;19640;50.944;5.260;2023-08-17T11:20:57;13.70;;;12.27;;
33268;SDS011;19640;50.944;5.260;2023-08-17T11:23:23;17.55;;;12.25;;
33268;SDS011;19640;50.944;5.260;2023-08-17T11:25:49;14.00;;;11.80;;
33268;SDS011;19640;50.944;5.260;2023-08-17T11:28:18;15.88;;;12.38;;
33268;SDS011;19640;50.944;5.260;2023-08-17T11:30:44;14.23;;;12.73;;
33268;SDS011;19640;50.944;5.260;2023-08-17T11:33:10;15.30;;;12.45;;
33268;SDS011;19640;50.944;5.260;2023-08-17T11:35:36;19.95;;;13.13;;
33268;SDS011;19640;50.944;5.260;2023-08-17T11:38:02;15.75;;;12.48;;
33268;SDS011;19640;50.944;5.260;2023-08-17T11:40:29;15.55;;;13.10;;
33268;SDS011;19640;50.944;5.260;2023-08-17T11:42:55;13.85;;;12.45;;
33268;SDS011;19640;50.944;5.260;2023-08-17T11:45:21;15.30;;;12.55;;
33268;SDS011;19640;50.944;5.260;2023-08-17T11:47:48;22.10;;;13.57;;
33268;SDS011;19640;50.944;5.260;2023-08-17T11:50:14;18.90;;;12.43;;
33268;SDS011;19640;50.944;5.260;2023-08-17T11:52:40;16.77;;;11.85;;
33268;SDS011;19640;50.944;5.260;2023-08-17T11:55:07;16.05;;;12.60;;
33268;SDS011;19640;50.944;5.260;2023-08-17T11:57:35;15.93;;;11.82;;
33268;SDS011;19640;50.944;5.260;2023-08-17T12:00:02;13.13;;;11.73;;
33268;SDS011;19640;50.944;5.260;2023-08-17T12:02:31;17.80;;;12.27;;
33268;SDS011;19640;50.944;5.260;2023-08-17T12:05:02;15.52;;;12.55;;
33268;SDS011;19640;50.944;5.260;2023-08-17T12:07:32;16.30;;;12.38;;
33268;SDS011;19640;50.944;5.260;2023-08-17T12:09:58;19.70;;;11.98;;
33268;SDS011;19640;50.944;5.260;2023-08-17T12:12:25;13.57;;;12.18;;
33268;SDS011;19640;50.944;5.260;2023-08-17T12:14:53;12.88;;;11.50;;
33268;SDS011;19640;50.944;5.260;2023-08-17T12:17:19;13.98;;;11.80;;
33268;SDS011;19640;50.944;5.260;2023-08-17T12:19:49;16.58;;;13.98;;
33268;SDS011;19640;50.944;5.260;2023-08-17T12:22:16;15.27;;;11.52;;
33268;SDS011;19640;50.944;5.260;2023-08-17T12:24:42;13.88;;;11.95;;
33268;SDS011;19640;50.944;5.260;2023-08-17T12:27:09;15.23;;;11.40;;
33268;SDS011;19640;50.944;5.260;2023-08-17T12:29:55;14.75;;;11.27;;
33268;SDS011;19640;50.944;5.260;2023-08-17T12:32:21;17.40;;;12.93;;
33268;SDS011;19640;50.944;5.260;2023-08-17T12:34:46;14.55;;;12.88;;
33268;SDS011;19640;50.944;5.260;2023-08-17T12:37:17;13.95;;;12.45;;
33268;SDS011;19640;50.944;5.260;2023-08-17T12:39:45;14.05;;;12.23;;
33268;SDS011;19640;50.944;5.260;2023-08-17T12:42:11;14.05;;;12.55;;
33268;SDS011;19640;50.944;5.260;2023-08-17T12:44:37;14.95;;;13.25;;
33268;SDS011;19640;50.944;5.260;2023-08-17T12:47:03;15.13;;;12.00;;
33268;SDS011;19640;50.944;5.260;2023-08-17T12:49:29;20.17;;;13.90;;
33268;SDS011;19640;50.944;5.260;2023-08-17T12:51:54;15.65;;;13.50;;
33268;SDS011;19640;50.944;5.260;2023-08-17T12:54:20;16.02;;;12.93;;
33268;SDS011;19640;50.944;5.260;2023-08-17T12:56:46;16.30;;;13.40;;
33268;SDS011;19640;50.944;5.260;2023-08-17T12:59:11;13.68;;;11.43;;
33268;SDS011;19640;50.944;5.260;2023-08-17T13:01:38;17.02;;;11.98;;
33268;SDS011;19640;50.944;5.260;2023-08-17T13:04:04;15.82;;;11.27;;
33268;SDS011;19640;50.944;5.260;2023-08-17T13:06:30;12.05;;;9.70;;
33268;SDS011;19640;50.944;5.260;2023-08-17T13:08:56;12.20;;;10.25;;
33268;SDS011;19640;50.944;5.260;2023-08-17T13:11:22;14.00;;;11.10;;
33268;SDS011;19640;50.944;5.260;2023-08-17T13:13:48;13.07;;;10.73;;
33268;SDS011;19640;50.944;5.260;2023-08-17T13:16:13;12.15;;;10.95;;
33268;SDS011;19640;50.944;5.260;2023-08-17T13:18:39;14.60;;;10.95;;
33268;SDS011;19640;50.944;5.260;2023-08-17T13:21:05;12.07;;;10.18;;
33268;SDS011;19640;50.944;5.260;2023-08-17T13:23:31;17.80;;;11.32;;
33268;SDS011;19640;50.944;5.260;2023-08-17T13:25:57;12.23;;;10.38;;
33268;SDS011;19640;50.944;5.260;2023-08-17T13:28:23;12.20;;;9.55;;
33268;SDS011;19640;50.944;5.260;2023-08-17T13:30:49;15.77;;;10.77;;
33268;SDS011;19640;50.944;5.260;2023-08-17T13:33:15;11.95;;;10.73;;
33268;SDS011;19640;50.944;5.260;2023-08-17T13:35:43;10.73;;;9.60;;
33268;SDS011;19640;50.944;5.260;2023-08-17T13:38:09;11.15;;;10.05;;
33268;SDS011;19640;50.944;5.260;2023-08-17T13:40:35;11.43;;;10.10;;
33268;SDS011;19640;50.944;5.260;2023-08-17T13:43:03;14.65;;;10.63;;
33268;SDS011;19640;50.944;5.260;2023-08-17T13:45:33;19.45;;;10.57;;
33268;SDS011;19640;50.944;5.260;2023-08-17T13:47:59;11.77;;;9.70;;
33268;SDS011;19640;50.944;5.260;2023-08-17T13:50:25;15.07;;;10.07;;
33268;SDS011;19640;50.944;5.260;2023-08-17T13:52:51;13.85;;;9.35;;
33268;SDS011;19640;50.944;5.260;2023-08-17T13:55:16;11.50;;;10.30;;
33268;SDS011;19640;50.944;5.260;2023-08-17T13:57:42;13.52;;;10.20;;
33268;SDS011;19640;50.944;5.260;2023-08-17T14:00:08;11.95;;;10.73;;
33268;SDS011;19640;50.944;5.260;2023-08-17T14:02:34;15.05;;;9.77;;
33268;SDS011;19640;50.944;5.260;2023-08-17T14:05:00;12.27;;;10.95;;
33268;SDS011;19640;50.944;5.260;2023-08-17T14:07:25;13.18;;;11.02;;
33268;SDS011;19640;50.944;5.260;2023-08-17T14:09:51;12.60;;;9.90;;
33268;SDS011;19640;50.944;5.260;2023-08-17T14:12:17;13.65;;;9.52;;
33268;SDS011;19640;50.944;5.260;2023-08-17T14:14:42;11.88;;;10.68;;
33268;SDS011;19640;50.944;5.260;2023-08-17T14:17:08;15.02;;;11.07;;
33268;SDS011;19640;50.944;5.260;2023-08-17T14:19:34;14.07;;;10.68;;
33268;SDS011;19640;50.944;5.260;2023-08-17T14:21:59;12.50;;;10.73;;
33268;SDS011;19640;50.944;5.260;2023-08-17T14:24:26;12.75;;;11.20;;
33268;SDS011;19640;50.944;5.260;2023-08-17T14:26:52;12.75;;;10.27;;
33268;SDS011;19640;50.944;5.260;2023-08-17T14:29:18;14.55;;;10.68;;
33268;SDS011;19640;50.944;5.260;2023-08-17T14:31:44;14.43;;;11.57;;
33268;SDS011;19640;50.944;5.260;2023-08-17T14:34:09;15.88;;;12.40;;
33268;SDS011;19640;50.944;5.260;2023-08-17T14:36:35;15.48;;;12.13;;
33268;SDS011;19640;50.944;5.260;2023-08-17T14:39:01;14.18;;;12.77;;
33268;SDS011;19640;50.944;5.260;2023-08-17T14:41:27;14.55;;;11.30;;
33268;SDS011;19640;50.944;5.260;2023-08-17T14:43:57;13.35;;;11.95;;
33268;SDS011;19640;50.944;5.260;2023-08-17T14:46:24;13.60;;;11.85;;
33268;SDS011;19640;50.944;5.260;2023-08-17T14:48:50;16.83;;;13.40;;